Time;durP1;ratioP1;P1;durP2;ratioP2;P2;SDS_P1;SDS_P2;PMS_P1;PMS_P2;Temp;Humidity;BMP_temperature;BMP_pressure;BME280_temperature;BME280_humidity;BME280_pressure;Samples;Min_cycle;Max_cycle;Signal;HPM_P1;HPM_P2
2023/10/04 00:00:21;;;;;;;1.50;0.98;;;;;;;13.74;nan;100703.03;4913154;29;20205;-79
2023/10/04 00:02:50;;;;;;;1.70;1.08;;;;;;;13.80;nan;100710.63;4919555;28;20614;-78
2023/10/04 00:05:17;;;;;;;1.45;1.20;;;;;;;13.81;nan;100704.41;4916654;29;20742;-77
2023/10/04 00:07:48;;;;;;;1.67;1.55;;;;;;;13.81;nan;100709.69;4917126;28;20562;-76
2023/10/04 00:10:14;;;;;;;2.88;1.30;;;;;;;13.77;nan;100696.72;4914423;29;20217;-78
2023/10/04 00:12:42;;;;;;;2.67;1.60;;;;;;;13.73;nan;100711.91;4916782;29;20209;-77
2023/10/04 00:15:12;;;;;;;2.05;1.42;;;;;;;13.68;nan;100706.91;4914863;28;20348;-79
2023/10/04 00:17:41;;;;;;;3.80;1.70;;;;;;;13.67;nan;100714.94;4918618;29;20225;-76
2023/10/04 00:20:16;;;;;;;3.05;1.95;;;;;;;13.65;nan;100715.00;4916842;29;20293;-77
2023/10/04 00:22:43;;;;;;;2.28;1.70;;;;;;;13.63;nan;100710.75;4915349;29;20205;-76
2023/10/04 00:25:16;;;;;;;5.13;1.85;;;;;;;13.54;nan;100704.22;4916982;29;20198;-79
2023/10/04 00:27:43;;;;;;;2.65;1.48;;;;;;;13.54;nan;100706.88;4916320;29;20220;-77
2023/10/04 00:30:13;;;;;;;4.05;1.88;;;;;;;13.56;nan;100712.91;4916233;29;20478;-76
2023/10/04 00:32:38;;;;;;;2.78;1.63;;;;;;;13.59;nan;100702.19;4918979;29;20209;-76
2023/10/04 00:35:19;;;;;;;3.57;1.63;;;;;;;13.60;nan;100700.38;4918188;29;20276;-79
2023/10/04 00:37:48;;;;;;;2.30;1.70;;;;;;;13.58;nan;100699.63;4917791;29;20941;-77
2023/10/04 00:40:19;;;;;;;1.88;1.70;;;;;;;13.60;nan;100700.38;4917535;28;20284;-78
2023/10/04 00:42:49;;;;;;;3.45;1.50;;;;;;;13.63;nan;100703.69;4917483;28;20703;-79
2023/10/04 00:45:19;;;;;;;1.90;1.80;;;;;;;13.66;nan;100706.16;4915473;29;21331;-76
2023/10/04 00:47:53;;;;;;;1.60;1.50;;;;;;;13.66;nan;100698.25;4912560;29;20368;-78
2023/10/04 00:50:25;;;;;;;2.75;1.90;;;;;;;13.61;nan;100694.16;4913580;28;20225;-76
2023/10/04 00:52:54;;;;;;;3.50;1.92;;;;;;;13.52;nan;100697.34;4929113;28;20292;-77
2023/10/04 00:55:21;;;;;;;3.95;1.90;;;;;;;13.42;nan;100686.47;4927525;28;20233;-76
2023/10/04 00:57:51;;;;;;;3.58;2.45;;;;;;;13.36;nan;100687.66;4913372;29;20510;-78
2023/10/04 01:00:17;;;;;;;2.10;1.35;;;;;;;13.36;nan;100685.03;4914375;29;20214;-79
2023/10/04 01:02:44;;;;;;;2.67;1.67;;;;;;;13.37;nan;100686.75;4915025;29;20562;-76
2023/10/04 01:05:11;;;;;;;1.85;1.25;;;;;;;13.39;nan;100687.47;4914808;29;21025;-79
2023/10/04 01:07:39;;;;;;;2.22;1.55;;;;;;;13.43;nan;100693.47;4915115;29;20214;-78
2023/10/04 01:10:16;;;;;;;5.88;2.10;;;;;;;13.44;nan;100689.88;4923009;28;20217;-78
2023/10/04 01:12:54;;;;;;;3.70;1.60;;;;;;;13.42;nan;100689.97;4913817;29;20201;-78
2023/10/04 01:17:51;;;;;;;2.85;1.70;;;;;;;13.36;nan;100692.94;4915308;28;20394;-76
2023/10/04 01:20:22;;;;;;;1.95;1.60;;;;;;;13.39;nan;100690.13;4914187;28;20880;-79
2023/10/04 01:22:47;;;;;;;2.35;1.60;;;;;;;13.42;nan;100687.34;4913007;29;20206;-76
2023/10/04 01:25:13;;;;;;;2.03;1.43;;;;;;;13.44;nan;100693.34;4910010;29;20261;-78
2023/10/04 01:27:38;;;;;;;4.33;1.77;;;;;;;13.41;nan;100685.63;4911734;29;20245;-76
2023/10/04 01:30:11;;;;;;;1.93;1.77;;;;;;;13.35;nan;100690.41;4916479;29;20555;-76
2023/10/04 01:32:37;;;;;;;2.60;1.45;;;;;;;13.33;nan;100687.84;4913879;28;20252;-78
2023/10/04 01:35:05;;;;;;;2.13;1.92;;;;;;;13.36;nan;100686.81;4914356;28;20269;-76
2023/10/04 01:37:32;;;;;;;2.63;1.90;;;;;;;13.40;nan;100688.34;4910729;29;20483;-76
2023/10/04 01:39:58;;;;;;;2.45;2.00;;;;;;;13.43;nan;100685.53;4913227;29;20281;-76
2023/10/04 01:42:26;;;;;;;2.37;1.63;;;;;;;13.46;nan;100691.47;4912933;29;20574;-76
2023/10/04 01:44:55;;;;;;;2.75;2.08;;;;;;;13.43;nan;100682.91;4912488;29;20502;-76
2023/10/04 01:47:21;;;;;;;4.93;1.55;;;;;;;13.39;nan;100687.47;4911481;28;20265;-78
2023/10/04 01:49:47;;;;;;;2.90;2.10;;;;;;;13.36;nan;100678.91;4914940;29;20206;-76
2023/10/04 01:52:13;;;;;;;2.20;1.58;;;;;;;13.31;nan;100681.81;4911516;29;20457;-77
2023/10/04 01:54:39;;;;;;;2.73;1.90;;;;;;;13.32;nan;100680.03;4929217;28;20213;-79
2023/10/04 01:57:05;;;;;;;2.93;1.93;;;;;;;13.36;nan;100676.25;4911962;28;20213;-76
2023/10/04 01:59:33;;;;;;;1.83;1.55;;;;;;;13.38;nan;100680.53;4929941;28;20210;-79
2023/10/04 02:01:59;;;;;;;2.72;1.63;;;;;;;13.43;nan;100677.63;4916249;29;20209;-77
2023/10/04 02:04:25;;;;;;;2.83;1.93;;;;;;;13.44;nan;100674.03;4917884;29;20232;-76
2023/10/04 02:06:50;;;;;;;1.80;1.63;;;;;;;13.41;nan;100679.50;4914261;29;20461;-76
2023/10/04 02:09:20;;;;;;;2.33;1.83;;;;;;;13.39;nan;100684.00;4913442;29;20256;-76
2023/10/04 02:11:47;;;;;;;1.95;1.40;;;;;;;13.35;nan;100685.13;4918537;28;20966;-78
2023/10/04 02:14:12;;;;;;;2.08;1.85;;;;;;;13.33;nan;100684.38;4920155;28;20202;-77
2023/10/04 02:16:38;;;;;;;5.03;1.93;;;;;;;13.34;nan;100684.28;4920350;29;20265;-78
2023/10/04 02:19:03;;;;;;;2.67;1.87;;;;;;;13.38;nan;100692.88;4918836;29;20575;-76
2023/10/04 02:21:29;;;;;;;3.67;2.20;;;;;;;13.41;nan;100688.25;4918885;28;20325;-77
2023/10/04 02:23:54;;;;;;;1.73;1.30;;;;;;;13.42;nan;100691.72;4931170;28;20213;-79
2023/10/04 02:26:22;;;;;;;2.47;1.17;;;;;;;13.41;nan;100697.97;4918078;29;20205;-77
2023/10/04 02:28:51;;;;;;;6.22;2.97;;;;;;;13.40;nan;100688.34;4919769;29;20193;-77
2023/10/04 02:31:20;;;;;;;3.70;2.03;;;;;;;13.39;nan;100692.75;4921388;29;20221;-77
2023/10/04 02:33:46;;;;;;;3.03;1.85;;;;;;;13.40;nan;100693.63;4927161;29;20202;-79
2023/10/04 02:36:11;;;;;;;3.72;2.00;;;;;;;13.42;nan;100687.34;4925182;29;20548;-76
2023/10/04 02:38:37;;;;;;;4.13;2.40;;;;;;;13.44;nan;100690.72;4928924;28;20209;-77
2023/10/04 02:41:05;;;;;;;4.68;2.63;;;;;;;13.48;nan;100689.59;4924196;29;20870;-79
2023/10/04 02:43:32;;;;;;;1.50;1.40;;;;;;;13.53;nan;100685.81;4926918;28;20202;-74
2023/10/04 02:45:58;;;;;;;5.32;3.03;;;;;;;13.52;nan;100697.34;4924417;29;20628;-77
2023/10/04 02:48:23;;;;;;;2.70;1.38;;;;;;;13.46;nan;100696.75;4945755;28;20214;-78
2023/10/04 02:50:49;;;;;;;7.90;2.97;;;;;;;13.40;nan;100698.91;4930871;29;20273;-77
2023/10/04 02:53:24;;;;;;;1.20;1.10;;;;;;;13.36;nan;100697.38;4949313;28;20193;-78
2023/10/04 02:55:54;;;;;;;1.67;1.17;;;;;;;13.34;nan;100700.13;4933739;29;20201;-76
2023/10/04 02:58:23;;;;;;;2.92;1.23;;;;;;;13.28;nan;100695.19;4942838;28;20366;-77
2023/10/04 03:00:50;;;;;;;1.40;1.30;;;;;;;13.21;nan;100699.94;4914155;29;20702;-75
2023/10/04 03:03:22;;;;;;;2.25;1.30;;;;;;;13.12;nan;100707.50;4917407;28;20786;-78
2023/10/04 03:05:54;;;;;;;1.95;1.35;;;;;;;13.00;nan;100712.53;4934693;28;20622;-78
2023/10/04 03:08:20;;;;;;;2.22;1.20;;;;;;;12.94;nan;100702.34;4930216;28;20602;-78
2023/10/04 03:10:50;;;;;;;1.50;1.30;;;;;;;12.88;nan;100702.69;4929324;28;20202;-75
2023/10/04 03:13:22;;;;;;;1.60;1.50;;;;;;;12.86;nan;100699.28;4930164;28;20450;-77
2023/10/04 03:15:50;;;;;;;3.08;2.08;;;;;;;12.88;nan;100696.56;4924000;29;20738;-75
2023/10/04 03:18:18;;;;;;;2.22;2.00;;;;;;;12.91;nan;100706.91;4913653;29;20711;-75
2023/10/04 03:21:30;;;;;;;2.45;1.83;;;;;;;12.93;nan;100710.34;4930647;28;20206;-75
2023/10/04 03:23:40;;;;;;;1.70;1.60;;;;;;;12.96;nan;100703.13;4921405;28;20209;-77
2023/10/04 03:26:11;;;;;;;6.35;2.38;;;;;;;13.01;nan;100695.78;4928666;28;20198;-75
2023/10/04 03:28:38;;;;;;;2.05;1.70;;;;;;;13.06;nan;100699.00;4914520;29;20217;-75
2023/10/04 03:31:14;;;;;;;3.15;1.80;;;;;;;13.12;nan;100710.16;4913581;28;20218;-75
2023/10/04 03:33:43;;;;;;;2.92;1.95;;;;;;;13.15;nan;100715.25;4930748;28;20178;-77
2023/10/04 03:36:14;;;;;;;2.00;1.48;;;;;;;13.12;nan;100710.16;4914505;29;20687;-77
2023/10/04 03:38:42;;;;;;;1.77;1.45;;;;;;;13.03;nan;100717.66;4913948;29;20209;-77
2023/10/04 03:41:07;;;;;;;5.03;1.50;;;;;;;12.99;nan;100715.28;4921376;28;20210;-77
2023/10/04 03:43:36;;;;;;;3.60;1.70;;;;;;;12.95;nan;100714.59;4928465;28;20230;-78
2023/10/04 03:46:18;;;;;;;3.35;1.55;;;;;;;12.92;nan;100716.56;4928717;28;20205;-77
2023/10/04 03:48:46;;;;;;;2.10;1.65;;;;;;;12.88;nan;100720.28;4911440;29;20548;-75
2023/10/04 03:51:13;;;;;;;2.40;1.45;;;;;;;12.82;nan;100714.41;4916983;28;20209;-78
2023/10/04 03:53:41;;;;;;;2.88;1.92;;;;;;;12.81;nan;100717.16;4929468;28;20596;-76
2023/10/04 03:56:10;;;;;;;2.90;1.83;;;;;;;12.80;nan;100707.56;4929970;28;20218;-76
2023/10/04 03:58:37;;;;;;;2.20;1.20;;;;;;;12.78;nan;100707.63;4931133;28;20208;-77
2023/10/04 04:01:03;;;;;;;2.28;1.90;;;;;;;12.76;nan;100703.38;4914163;29;20781;-76
2023/10/04 04:03:30;;;;;;;3.47;2.35;;;;;;;12.76;nan;100713.91;4927433;28;20194;-78
2023/10/04 04:05:56;;;;;;;3.35;2.08;;;;;;;12.76;nan;100709.47;4913124;28;20197;-75
2023/10/04 04:08:21;;;;;;;1.60;1.50;;;;;;;12.76;nan;100717.38;4928347;28;20215;-76
2023/10/04 04:10:47;;;;;;;3.83;2.47;;;;;;;12.76;nan;100724.47;4914182;29;20649;-76
2023/10/04 04:13:13;;;;;;;2.38;1.80;;;;;;;12.70;nan;100720.38;4927995;28;20210;-77
2023/10/04 04:15:41;;;;;;;3.50;1.70;;;;;;;12.68;nan;100737.22;4913857;29;20212;-79
2023/10/04 04:18:20;;;;;;;13.80;2.95;;;;;;;12.66;nan;100737.28;4913636;29;20194;-78
2023/10/04 04:20:48;;;;;;;2.53;1.77;;;;;;;12.68;nan;100747.75;4929612;28;20576;-78
2023/10/04 04:23:15;;;;;;;3.03;1.80;;;;;;;12.69;nan;100736.25;4917211;29;20206;-75
2023/10/04 04:25:43;;;;;;;1.75;1.63;;;;;;;12.68;nan;100745.97;4912216;28;20256;-75
2023/10/04 04:28:14;;;;;;;2.55;1.75;;;;;;;12.67;nan;100741.63;4914443;28;20313;-78
2023/10/04 04:30:40;;;;;;;3.45;1.75;;;;;;;12.68;nan;100740.69;4919160;28;20260;-78
2023/10/04 04:33:07;;;;;;;3.57;1.90;;;;;;;12.68;nan;100738.06;4914860;29;20198;-75
2023/10/04 04:38:22;;;;;;;3.35;2.15;;;;;;;12.72;nan;100736.09;4915147;29;20491;-76
2023/10/04 04:40:50;;;;;;;2.70;1.77;;;;;;;12.73;nan;100733.38;4914863;28;20209;-77
2023/10/04 04:45:57;;;;;;;3.38;2.17;;;;;;;12.68;nan;100724.88;4908758;29;20214;-76
2023/10/04 04:48:35;;;;;;;3.55;1.83;;;;;;;12.65;nan;100732.09;4912873;29;20718;-76
2023/10/04 04:51:11;;;;;;;2.95;1.65;;;;;;;12.63;nan;100737.44;4912762;29;20733;-75
2023/10/04 04:53:41;;;;;;;2.35;2.15;;;;;;;12.62;nan;100736.59;4922875;28;20202;-75
2023/10/04 04:56:21;;;;;;;2.22;1.85;;;;;;;12.63;nan;100730.38;4906215;28;20229;-77
2023/10/04 04:58:48;;;;;;;4.10;2.15;;;;;;;12.59;nan;100742.03;4920838;28;20248;-78
2023/10/04 05:01:15;;;;;;;1.20;1.07;;;;;;;12.52;nan;100740.66;4908452;28;20213;-76
2023/10/04 05:03:43;;;;;;;1.30;1.15;;;;;;;12.43;nan;100741.16;4915202;28;20634;-76
2023/10/04 05:06:21;;;;;;;1.33;1.10;;;;;;;12.32;nan;100747.00;4907285;29;20555;-79
2023/10/04 05:08:46;;;;;;;1.40;1.25;;;;;;;12.20;nan;100738.88;4908541;28;20276;-79
2023/10/04 05:11:12;;;;;;;1.97;1.40;;;;;;;12.12;nan;100744.53;4906701;29;20296;-79
2023/10/04 05:13:37;;;;;;;1.73;1.00;;;;;;;12.08;nan;100737.75;4907017;29;20208;-78
2023/10/04 05:16:05;;;;;;;1.20;1.10;;;;;;;12.08;nan;100733.31;4908990;29;20585;-77
2023/10/04 05:18:31;;;;;;;1.40;1.30;;;;;;;12.07;nan;100744.81;4906441;28;20281;-79
2023/10/04 05:20:56;;;;;;;1.77;1.30;;;;;;;12.03;nan;100729.22;4908104;28;20981;-78
2023/10/04 05:23:24;;;;;;;2.80;1.70;;;;;;;12.03;nan;100729.22;4904889;28;20511;-75
2023/10/04 05:25:53;;;;;;;4.68;2.35;;;;;;;12.02;nan;100724.91;4904411;29;20245;-77
2023/10/04 05:28:20;;;;;;;3.75;2.10;;;;;;;12.03;nan;100735.34;4907759;29;20214;-77
2023/10/04 05:30:46;;;;;;;2.60;2.00;;;;;;;12.06;nan;100724.66;4904375;29;20234;-76
2023/10/04 05:33:17;;;;;;;3.47;2.00;;;;;;;12.12;nan;100723.47;4905287;29;20202;-77
2023/10/04 05:35:44;;;;;;;3.97;1.55;;;;;;;12.20;nan;100723.06;4907290;29;20200;-79
2023/10/04 05:38:12;;;;;;;4.50;2.85;;;;;;;12.21;nan;100722.16;4908428;29;20182;-76
2023/10/04 05:40:38;;;;;;;4.43;2.55;;;;;;;12.29;nan;100730.50;4907659;28;20216;-76
2023/10/04 05:43:06;;;;;;;4.15;2.20;;;;;;;12.30;nan;100726.94;4907477;29;20256;-78
2023/10/04 05:45:32;;;;;;;3.45;2.10;;;;;;;12.32;nan;100732.97;4904757;29;20201;-76
2023/10/04 05:47:59;;;;;;;2.72;1.98;;;;;;;12.34;nan;100737.25;4907160;29;20856;-77
2023/10/04 05:50:26;;;;;;;2.97;2.05;;;;;;;12.37;nan;100730.97;4908013;29;20654;-76
2023/10/04 05:52:53;;;;;;;3.78;1.92;;;;;;;12.40;nan;100733.44;4905596;28;20710;-75
2023/10/04 05:55:20;;;;;;;3.10;2.00;;;;;;;12.43;nan;100732.41;4907880;28;20193;-78
2023/10/04 05:57:47;;;;;;;2.67;2.42;;;;;;;12.49;nan;100732.91;4908357;29;20194;-78
2023/10/04 06:02:56;;;;;;;2.88;2.10;;;;;;;12.63;nan;100733.03;4908194;29;20625;-75
2023/10/04 06:05:23;;;;;;;2.50;2.30;;;;;;;12.73;nan;100732.53;4906213;29;20249;-77
2023/10/04 06:07:50;;;;;;;2.35;2.15;;;;;;;12.82;nan;100734.66;4908291;28;20237;-76
2023/10/04 06:10:16;;;;;;;3.15;2.03;;;;;;;12.88;nan;100736.97;4906574;29;20574;-76
2023/10/04 06:12:44;;;;;;;2.33;2.10;;;;;;;12.91;nan;100744.72;4909659;28;20209;-78
2023/10/04 06:15:10;;;;;;;3.03;2.72;;;;;;;12.95;nan;100740.13;4909651;28;20449;-78
2023/10/04 06:17:42;;;;;;;5.82;3.00;;;;;;;12.95;nan;100740.97;4908048;29;20190;-76
2023/10/04 06:20:25;;;;;;;2.25;2.00;;;;;;;12.98;nan;100734.66;4906053;28;20213;-78
2023/10/04 06:22:55;;;;;;;4.30;2.30;;;;;;;13.01;nan;100735.34;4905716;29;20198;-78
2023/10/04 06:25:22;;;;;;;2.40;2.17;;;;;;;13.09;nan;100737.56;4908072;28;20197;-79
2023/10/04 06:27:53;;;;;;;3.33;2.35;;;;;;;13.18;nan;100746.75;4908237;28;20221;-77
2023/10/04 06:30:26;;;;;;;3.10;2.20;;;;;;;13.28;nan;100745.31;4908792;29;20504;-76
2023/10/04 06:32:57;;;;;;;4.05;2.40;;;;;;;13.37;nan;100741.31;4909277;29;20209;-78
2023/10/04 06:35:24;;;;;;;4.78;2.90;;;;;;;13.43;nan;100738.31;4910791;29;20256;-77
2023/10/04 06:38:01;;;;;;;4.43;2.70;;;;;;;13.51;nan;100738.72;4909416;29;20194;-78
2023/10/04 06:40:30;;;;;;;3.20;2.50;;;;;;;13.55;nan;100739.38;4910485;29;20462;-76
2023/10/04 06:42:55;;;;;;;4.40;2.72;;;;;;;13.59;nan;100747.06;4907856;29;20213;-75
2023/10/04 06:45:24;;;;;;;2.67;1.90;;;;;;;13.65;nan;100759.03;4906360;29;20570;-76
2023/10/04 06:47:50;;;;;;;5.65;2.95;;;;;;;13.72;nan;100757.75;4907314;28;20488;-77
2023/10/04 06:50:20;;;;;;;3.65;3.05;;;;;;;13.80;nan;100766.09;4910167;28;20225;-76
2023/10/04 06:52:49;;;;;;;6.03;2.20;;;;;;;13.84;nan;100767.59;4925313;28;20605;-78
2023/10/04 06:55:20;;;;;;;3.50;2.40;;;;;;;13.83;nan;100768.53;4906509;28;20549;-77
2023/10/04 06:57:46;;;;;;;3.03;2.20;;;;;;;13.83;nan;100771.19;4908271;28;20282;-77
2023/10/04 07:00:19;;;;;;;2.40;1.92;;;;;;;13.82;nan;100769.47;4911901;29;20233;-78
2023/10/04 07:02:53;;;;;;;5.10;2.83;;;;;;;13.87;nan;100771.84;4912821;29;20204;-79
2023/10/04 07:05:26;;;;;;;4.18;2.53;;;;;;;13.91;nan;100779.50;4913901;29;21311;-76
2023/10/04 07:07:54;;;;;;;3.67;2.50;;;;;;;13.98;nan;100773.84;4910884;29;20215;-77
2023/10/04 07:10:20;;;;;;;3.17;2.72;;;;;;;14.05;nan;100773.41;4908781;29;20233;-78
2023/10/04 07:12:47;;;;;;;2.78;1.60;;;;;;;14.11;nan;100774.81;4907400;29;20387;-77
2023/10/04 07:15:14;;;;;;;2.70;2.42;;;;;;;14.13;nan;100778.22;4911025;29;20209;-78
2023/10/04 07:17:40;;;;;;;3.25;2.65;;;;;;;14.14;nan;100779.91;4906843;29;20242;-78
2023/10/04 07:20:07;;;;;;;2.95;2.45;;;;;;;14.15;nan;100781.66;4907638;28;20694;-76
2023/10/04 07:22:37;;;;;;;2.85;2.65;;;;;;;14.17;nan;100785.88;4908116;29;20200;-77
2023/10/04 07:25:03;;;;;;;2.78;2.58;;;;;;;14.19;nan;100782.31;4909905;28;20627;-78
2023/10/04 07:27:29;;;;;;;4.05;2.55;;;;;;;14.21;nan;100788.34;4911160;29;20534;-77
2023/10/04 07:29:54;;;;;;;2.60;2.40;;;;;;;14.25;nan;100789.84;4905774;28;20230;-78
2023/10/04 07:32:23;;;;;;;5.10;3.20;;;;;;;14.32;nan;100792.03;4911775;28;20202;-78
2023/10/04 07:34:48;;;;;;;3.50;2.50;;;;;;;14.44;nan;100795.72;4911232;29;20987;-76
2023/10/04 07:37:14;;;;;;;4.13;3.00;;;;;;;14.55;nan;100795.94;4909199;29;20445;-78
2023/10/04 07:39:39;;;;;;;4.33;3.30;;;;;;;14.66;nan;100808.50;4908335;29;20268;-76
2023/10/04 07:42:04;;;;;;;2.83;2.50;;;;;;;14.72;nan;100797.56;4910102;29;20229;-76
2023/10/04 07:44:30;;;;;;;2.77;2.10;;;;;;;14.78;nan;100797.19;4907038;29;20244;-78
2023/10/04 07:47:02;;;;;;;2.50;1.77;;;;;;;14.84;nan;100801.25;4911361;29;20655;-76
2023/10/04 07:49:31;;;;;;;3.55;2.40;;;;;;;14.90;nan;100803.50;4909308;29;20475;-76
2023/10/04 07:51:57;;;;;;;4.75;2.45;;;;;;;14.95;nan;100805.84;4909269;29;20193;-76
2023/10/04 07:54:23;;;;;;;4.00;2.77;;;;;;;15.05;nan;100809.63;4911428;29;20202;-76
2023/10/04 07:56:51;;;;;;;2.93;2.03;;;;;;;15.36;nan;100800.56;4904119;29;20457;-78
2023/10/04 07:59:17;;;;;;;2.97;2.28;;;;;;;16.15;nan;100794.47;4906269;28;20256;-77
2023/10/04 08:01:44;;;;;;;6.40;2.50;;;;;;;17.02;nan;100794.66;4911458;29;20516;-79
2023/10/04 08:04:11;;;;;;;2.72;1.92;;;;;;;17.88;nan;100786.56;4907227;29;20460;-77
2023/10/04 08:06:40;;;;;;;3.50;2.43;;;;;;;18.82;nan;100791.81;4908412;29;20296;-78
2023/10/04 08:09:06;;;;;;;2.50;1.60;;;;;;;19.62;nan;100796.84;4910084;28;20453;-76
2023/10/04 08:11:35;;;;;;;2.50;1.90;;;;;;;20.34;nan;100778.31;4908975;29;21005;-76
2023/10/04 08:14:02;;;;;;;2.20;1.60;;;;;;;20.92;nan;100775.06;4908834;28;20616;-76
2023/10/04 08:16:30;;;;;;;2.20;2.00;;;;;;;21.34;nan;100774.91;4910329;28;20440;-77
2023/10/04 08:18:56;;;;;;;3.87;2.60;;;;;;;21.66;nan;100765.81;4906693;28;21007;-76
2023/10/04 08:21:22;;;;;;;3.47;2.03;;;;;;;22.07;nan;100769.13;4907334;29;21036;-77
2023/10/04 08:23:49;;;;;;;2.40;1.97;;;;;;;22.61;nan;100767.59;4909160;29;20257;-76
2023/10/04 08:26:15;;;;;;;3.63;1.93;;;;;;;23.07;nan;100757.81;4907810;29;20428;-78
2023/10/04 08:28:42;;;;;;;2.50;1.90;;;;;;;23.35;nan;100755.06;4907179;29;20839;-78
2023/10/04 08:31:11;;;;;;;4.50;2.10;;;;;;;23.54;nan;100748.72;4907957;29;20484;-78
2023/10/04 08:33:37;;;;;;;4.40;2.27;;;;;;;23.95;nan;100741.88;4907544;29;20475;-78
2023/10/04 08:36:08;;;;;;;3.20;2.07;;;;;;;24.50;nan;100740.72;4908558;28;20427;-78
2023/10/04 08:38:34;;;;;;;2.50;1.60;;;;;;;24.79;nan;100739.50;4907056;29;21164;-78
2023/10/04 08:41:01;;;;;;;2.90;1.90;;;;;;;24.98;nan;100733.88;4909282;28;20503;-77
2023/10/04 08:43:27;;;;;;;4.60;1.83;;;;;;;25.16;nan;100739.13;4909873;29;20618;-77
2023/10/04 08:45:54;;;;;;;3.10;1.60;;;;;;;25.33;nan;100735.47;4908063;29;20447;-77
2023/10/04 08:48:21;;;;;;;3.10;2.20;;;;;;;25.49;nan;100736.47;4908808;28;20601;-77
2023/10/04 08:50:54;;;;;;;3.10;2.10;;;;;;;25.69;nan;100727.09;4906212;29;20452;-77
2023/10/04 08:53:35;;;;;;;4.30;1.90;;;;;;;25.85;nan;100730.81;4907352;29;20461;-79
2023/10/04 08:56:10;;;;;;;2.07;1.70;;;;;;;25.91;nan;100730.97;4913048;29;20518;-78
2023/10/04 08:58:36;;;;;;;3.30;2.27;;;;;;;25.86;nan;100722.56;4905702;29;20424;-79
2023/10/04 09:01:04;;;;;;;3.73;2.13;;;;;;;25.89;nan;100724.06;4906172;28;20488;-79
2023/10/04 09:03:31;;;;;;;4.20;2.00;;;;;;;25.77;nan;100729.78;4907000;28;20498;-78
2023/10/04 09:05:56;;;;;;;4.30;2.13;;;;;;;25.42;nan;100738.19;4907789;28;20449;-79
2023/10/04 09:08:24;;;;;;;5.43;2.20;;;;;;;25.14;nan;100738.41;4910177;29;20484;-77
2023/10/04 09:10:53;;;;;;;2.70;1.80;;;;;;;24.87;nan;100732.31;4905282;29;20216;-78
2023/10/04 09:13:18;;;;;;;2.90;2.60;;;;;;;24.46;nan;100742.88;4906208;29;20470;-78
2023/10/04 09:15:44;;;;;;;4.47;2.90;;;;;;;24.14;nan;100740.84;4909074;29;20789;-79
2023/10/04 09:18:09;;;;;;;5.37;3.30;;;;;;;23.71;nan;100741.63;4906859;28;20580;-78
2023/10/04 09:20:36;;;;;;;4.67;3.00;;;;;;;23.26;nan;100745.28;4908687;29;20217;-79
2023/10/04 09:23:15;;;;;;;5.20;2.43;;;;;;;22.83;nan;100739.56;4908293;29;20883;-79
2023/10/04 09:25:40;;;;;;;5.20;2.37;;;;;;;22.52;nan;100747.91;4909030;29;20977;-77
2023/10/04 09:28:11;;;;;;;3.83;2.23;;;;;;;22.33;nan;100739.09;4907242;29;20820;-77
2023/10/04 09:30:37;;;;;;;5.67;2.70;;;;;;;22.03;nan;100739.13;4905872;29;20221;-78
2023/10/04 09:33:07;;;;;;;6.30;2.50;;;;;;;21.73;nan;100731.31;4907820;28;21408;-78
2023/10/04 09:35:45;;;;;;;3.73;1.60;;;;;;;21.54;nan;100740.19;4907396;29;20208;-78
2023/10/04 09:38:17;;;;;;;3.37;2.10;;;;;;;21.42;nan;100748.34;4910277;28;20635;-79
2023/10/04 09:40:51;;;;;;;4.10;2.20;;;;;;;21.26;nan;100740.00;4903988;29;20478;-78
2023/10/04 09:43:17;;;;;;;3.13;2.07;;;;;;;21.24;nan;100749.97;4904872;29;20418;-79
2023/10/04 09:45:59;;;;;;;3.20;2.30;;;;;;;21.31;nan;100745.78;4909980;29;20916;-76
2023/10/04 09:48:30;;;;;;;3.60;2.13;;;;;;;21.30;nan;100741.41;4906882;29;20212;-76
2023/10/04 09:51:01;;;;;;;4.30;1.60;;;;;;;21.33;nan;100733.13;4909872;29;20806;-77
2023/10/04 09:53:28;;;;;;;4.37;2.10;;;;;;;21.37;nan;100731.00;4905761;29;21129;-76
2023/10/04 09:55:55;;;;;;;2.23;1.50;;;;;;;21.45;nan;100725.00;4908217;29;20445;-79
2023/10/04 09:58:24;;;;;;;3.43;2.03;;;;;;;21.59;nan;100719.22;4906860;28;20500;-76
2023/10/04 10:00:52;;;;;;;2.10;1.80;;;;;;;21.68;nan;100721.03;4906599;29;20451;-78
2023/10/04 10:03:25;;;;;;;2.30;1.90;;;;;;;21.69;nan;100724.56;4905558;29;20820;-77
2023/10/04 10:05:54;;;;;;;2.90;1.80;;;;;;;21.66;nan;100723.03;4907652;29;21125;-77
2023/10/04 10:08:21;;;;;;;2.17;1.40;;;;;;;21.59;nan;100719.22;4908610;28;20896;-77
2023/10/04 10:10:47;;;;;;;5.13;1.90;;;;;;;21.52;nan;100720.75;4905106;28;20985;-77
2023/10/04 10:13:15;;;;;;;4.50;1.70;;;;;;;21.48;nan;100724.72;4906176;29;20952;-79
2023/10/04 10:15:41;;;;;;;2.60;1.70;;;;;;;21.54;nan;100719.63;4907111;29;20519;-79
2023/10/04 10:18:08;;;;;;;2.37;1.70;;;;;;;21.59;nan;100721.88;4903766;29;20460;-81
2023/10/04 10:20:34;;;;;;;3.10;2.10;;;;;;;21.59;nan;100719.22;4906702;28;20439;-77
2023/10/04 10:22:59;;;;;;;1.50;1.17;;;;;;;21.62;nan;100716.25;4908820;29;20457;-79
2023/10/04 10:25:26;;;;;;;3.00;1.63;;;;;;;21.67;nan;100715.84;4910690;29;20446;-78
2023/10/04 10:27:55;;;;;;;5.33;1.70;;;;;;;21.68;nan;100713.00;4913175;29;20207;-78
2023/10/04 10:30:21;;;;;;;3.53;2.03;;;;;;;21.70;nan;100715.56;4911615;29;20619;-76
2023/10/04 10:32:56;;;;;;;5.47;1.90;;;;;;;21.67;nan;100722.03;4910339;29;20452;-78
2023/10/04 10:35:48;;;;;;;3.30;2.15;;;;;;;21.69;nan;100714.72;4907842;29;21527;-78
2023/10/04 10:38:41;;;;;;;2.53;1.20;;;;;;;21.76;nan;100706.94;4908657;29;20208;-77
2023/10/04 10:41:08;;;;;;;1.73;1.30;;;;;;;21.79;nan;100707.53;4910457;29;20847;-79
2023/10/04 10:43:37;;;;;;;2.97;2.07;;;;;;;21.78;nan;100711.16;4910203;29;21290;-79
2023/10/04 10:46:32;;;;;;;3.47;1.93;;;;;;;21.84;nan;100699.88;4907042;29;20436;-76
2023/10/04 10:48:58;;;;;;;4.10;1.53;;;;;;;21.95;nan;100701.56;4904424;29;20445;-78
2023/10/04 10:51:42;;;;;;;1.90;1.30;;;;;;;21.91;nan;100705.53;4910346;29;20472;-76
2023/10/04 10:54:08;;;;;;;3.03;1.77;;;;;;;21.80;nan;100693.16;4910578;29;20460;-76
2023/10/04 10:56:37;;;;;;;2.30;1.50;;;;;;;21.78;nan;100699.63;4906977;28;20810;-78
2023/10/04 10:59:04;;;;;;;3.10;1.70;;;;;;;21.74;nan;100688.38;4905684;29;20198;-78
2023/10/04 11:01:30;;;;;;;3.13;1.77;;;;;;;21.76;nan;100680.22;4907634;28;20870;-77
2023/10/04 11:03:56;;;;;;;2.50;1.80;;;;;;;21.76;nan;100682.88;4908933;29;20459;-77
2023/10/04 11:06:22;;;;;;;2.73;1.50;;;;;;;21.73;nan;100685.84;4910927;28;20246;-79
2023/10/04 11:08:47;;;;;;;2.30;1.90;;;;;;;21.65;nan;100678.53;4908024;29;20213;-77
2023/10/04 11:11:13;;;;;;;3.30;3.00;;;;;;;21.56;nan;100676.72;4910207;29;20478;-77
2023/10/04 11:13:43;;;;;;;2.30;1.63;;;;;;;21.48;nan;100682.78;4909180;29;20209;-77
2023/10/04 11:16:09;;;;;;;3.17;1.77;;;;;;;21.43;nan;100690.38;4907269;28;20741;-79
2023/10/04 11:18:35;;;;;;;2.70;1.77;;;;;;;21.35;nan;100675.00;4912047;29;20432;-78
2023/10/04 11:21:04;;;;;;;1.73;1.10;;;;;;;21.29;nan;100669.41;4911064;28;20474;-76
2023/10/04 11:23:30;;;;;;;2.70;1.43;;;;;;;21.28;nan;100662.34;4910624;28;20445;-78
2023/10/04 11:25:59;;;;;;;2.63;1.43;;;;;;;21.31;nan;100660.25;4909931;29;20471;-78
2023/10/04 11:28:25;;;;;;;2.13;1.47;;;;;;;21.35;nan;100663.47;4909934;29;20477;-77
2023/10/04 11:30:51;;;;;;;2.33;1.50;;;;;;;21.39;nan;100657.75;4911841;29;20447;-78
2023/10/04 11:33:17;;;;;;;2.37;1.63;;;;;;;21.41;nan;100660.25;4908183;28;20507;-78
2023/10/04 11:35:43;;;;;;;2.30;1.33;;;;;;;21.45;nan;100658.19;4908879;29;20545;-78
2023/10/04 11:38:16;;;;;;;2.17;1.20;;;;;;;21.45;nan;100650.16;4908839;28;20232;-77
2023/10/04 11:40:47;;;;;;;2.77;1.80;;;;;;;21.41;nan;100645.09;4910115;29;20440;-76
2023/10/04 11:43:14;;;;;;;3.30;1.40;;;;;;;21.31;nan;100640.72;4911471;29;20437;-77
2023/10/04 11:45:40;;;;;;;2.67;1.67;;;;;;;21.25;nan;100644.78;4908372;29;20795;-77
2023/10/04 11:48:10;;;;;;;2.77;1.30;;;;;;;21.18;nan;100644.50;4911608;28;20457;-78
2023/10/04 11:50:50;;;;;;;3.53;1.50;;;;;;;21.16;nan;100634.94;4907702;29;20439;-79
2023/10/04 11:53:35;;;;;;;4.17;1.70;;;;;;;21.15;nan;100638.59;4907341;29;20534;-78
2023/10/04 11:56:07;;;;;;;2.20;1.53;;;;;;;21.19;nan;100634.66;4908713;29;20468;-77
2023/10/04 11:58:45;;;;;;;3.03;1.80;;;;;;;21.21;nan;100627.34;4908538;29;20529;-78